createdAt,value
2018-07-27T00:00:26.601Z,56.37
2018-07-27T00:02:55.352Z,56.44
2018-07-27T00:05:24.324Z,57.11
2018-07-27T00:07:52.799Z,56.69
2018-07-27T00:10:21.316Z,57.45
2018-07-27T00:12:49.764Z,57.34
2018-07-27T00:15:18.205Z,57.31
2018-07-27T00:17:46.673Z,56.50
2018-07-27T00:20:15.143Z,56.59
2018-07-27T00:22:43.896Z,56.35
2018-07-27T00:25:12.706Z,57.03
2018-07-27T00:27:41.429Z,56.85
2018-07-27T00:30:11.217Z,57.72
2018-07-27T00:32:39.909Z,57.44
2018-07-27T00:35:08.469Z,56.94
2018-07-27T00:37:37.909Z,57.65
2018-07-27T00:40:06.575Z,57.84
2018-07-27T00:42:35.384Z,57.79
2018-07-27T00:45:03.980Z,57.65
2018-07-27T00:47:32.481Z,58.19
2018-07-27T00:50:01.433Z,58.17
2018-07-27T00:52:29.981Z,57.58
2018-07-27T00:54:58.457Z,58.25
2018-07-27T00:57:27.501Z,57.74
2018-07-27T00:59:56.277Z,58.16
2018-07-27T01:02:24.730Z,58.60
2018-07-27T01:04:53.645Z,58.87
2018-07-27T01:07:22.382Z,58.27
2018-07-27T01:09:50.913Z,58.39
2018-07-27T01:12:19.731Z,58.48
2018-07-27T01:14:48.433Z,59.19
2018-07-27T01:17:16.905Z,59.20
2018-07-27T01:19:45.761Z,59.62
2018-07-27T01:22:14.423Z,59.75
2018-07-27T01:24:42.893Z,59.24
2018-07-27T01:27:11.740Z,59.21
2018-07-27T01:29:40.192Z,59.62
2018-07-27T01:32:11.892Z,59.91
2018-07-27T01:34:40.570Z,59.82
2018-07-27T01:37:09.049Z,60.22
2018-07-27T01:39:37.745Z,60.16
2018-07-27T01:42:06.246Z,60.43
2018-07-27T01:44:34.833Z,60.89
2018-07-27T01:47:03.278Z,61.17
2018-07-27T01:49:32.652Z,61.52
2018-07-27T01:52:01.147Z,61.46
2018-07-27T01:54:29.618Z,61.60
2018-07-27T01:56:59.110Z,62.05
2018-07-27T01:59:27.849Z,61.73
2018-07-27T02:01:56.731Z,61.64
2018-07-27T02:04:25.500Z,61.38
2018-07-27T02:06:53.981Z,62.25
2018-07-27T02:09:22.581Z,61.77
2018-07-27T02:11:51.224Z,62.33
2018-07-27T02:14:19.736Z,62.42
2018-07-27T02:16:48.192Z,62.74
2018-07-27T02:19:16.894Z,62.03
2018-07-27T02:21:46.095Z,61.85
2018-07-27T02:24:14.540Z,62.12
2018-07-27T02:26:43.244Z,61.54
2018-07-27T02:29:12.255Z,61.62
2018-07-27T02:31:40.713Z,62.33
2018-07-27T02:34:09.606Z,62.19
2018-07-27T02:36:38.162Z,62.97
2018-07-27T02:39:08.894Z,63.09
2018-07-27T02:41:37.813Z,63.15
2018-07-27T02:44:06.665Z,62.37
2018-07-27T02:46:35.333Z,62.25
2018-07-27T02:49:04.282Z,61.99
2018-07-27T02:51:32.763Z,62.81
2018-07-27T02:54:01.202Z,62.79
2018-07-27T02:56:30.234Z,63.01
2018-07-27T02:58:58.679Z,62.86
2018-07-27T03:01:27.397Z,63.41
2018-07-27T03:03:56.333Z,63.05
2018-07-27T03:06:24.800Z,63.26
2018-07-27T03:08:53.281Z,62.75
2018-07-27T03:11:22.033Z,62.75
2018-07-27T03:13:50.885Z,62.91
2018-07-27T03:16:19.557Z,63.22
2018-07-27T03:18:48.439Z,63.41
2018-07-27T03:21:16.922Z,63.59
2018-07-27T03:23:45.369Z,63.59
2018-07-27T03:26:14.461Z,63.63
2018-07-27T03:28:42.913Z,63.73
2018-07-27T03:31:12.460Z,63.47
2018-07-27T03:33:41.121Z,63.39
2018-07-27T03:36:09.577Z,63.21
2018-07-27T03:38:40.121Z,63.13
2018-07-27T03:41:10.177Z,63.38
2018-07-27T03:43:38.830Z,63.83
2018-07-27T03:46:07.781Z,63.71
2018-07-27T03:48:37.044Z,63.60
2018-07-27T03:51:05.533Z,63.89
2018-07-27T03:53:34.213Z,63.47
2018-07-27T03:56:03.003Z,63.22
2018-07-27T03:58:31.681Z,63.60
2018-07-27T04:01:00.131Z,63.79
2018-07-27T04:03:29.153Z,64.11
2018-07-27T04:05:57.853Z,64.53
2018-07-27T04:08:26.592Z,64.57
2018-07-27T04:10:55.516Z,64.49
2018-07-27T04:13:23.962Z,64.32
2018-07-27T04:15:52.409Z,63.99
2018-07-27T04:18:21.265Z,64.37
2018-07-27T04:20:50.058Z,64.31
2018-07-27T04:23:18.500Z,64.52
2018-07-27T04:25:47.268Z,64.04
2018-07-27T04:28:16.047Z,64.31
2018-07-27T04:30:44.505Z,64.25
2018-07-27T04:33:13.526Z,63.58
2018-07-27T04:35:42.012Z,63.93
2018-07-27T04:38:10.777Z,63.38
2018-07-27T04:40:39.734Z,63.37
2018-07-27T04:43:08.165Z,63.53
2018-07-27T04:45:36.703Z,63.45
2018-07-27T04:48:05.806Z,63.72
2018-07-27T04:50:34.527Z,62.99
2018-07-27T04:53:02.982Z,63.35
2018-07-27T04:55:32.065Z,63.48
2018-07-27T04:58:00.559Z,63.39
2018-07-27T05:00:29.255Z,62.78
2018-07-27T05:02:58.429Z,62.74
2018-07-27T05:05:26.933Z,62.79
2018-07-27T05:07:55.361Z,63.04
2018-07-27T05:10:28.321Z,62.50
2018-07-27T05:12:56.953Z,62.35
2018-07-27T05:15:26.126Z,62.72
2018-07-27T05:17:54.624Z,62.08
2018-07-27T05:20:23.092Z,62.04
2018-07-27T05:22:52.296Z,61.99
2018-07-27T05:25:20.794Z,62.44
2018-07-27T05:27:49.237Z,62.27
2018-07-27T05:30:17.956Z,61.63
2018-07-27T05:32:46.445Z,61.51
2018-07-27T05:35:15.261Z,61.79
2018-07-27T05:37:43.992Z,61.58
2018-07-27T05:40:12.461Z,61.80
2018-07-27T05:42:41.374Z,61.51
2018-07-27T05:45:09.925Z,60.77
2018-07-27T05:47:38.748Z,61.18
2018-07-27T05:50:07.741Z,61.02
2018-07-27T05:52:36.414Z,61.13
2018-07-27T05:55:05.498Z,60.99
2018-07-27T05:57:34.349Z,60.32
2018-07-27T06:00:03.408Z,60.30
2018-07-27T06:02:31.933Z,59.99
2018-07-27T06:05:00.593Z,59.77
2018-07-27T06:07:29.448Z,59.66
2018-07-27T06:09:58.821Z,59.86
2018-07-27T06:12:27.597Z,59.75
2018-07-27T06:14:56.461Z,59.86
2018-07-27T06:17:25.053Z,59.81
2018-07-27T06:19:53.714Z,59.44
2018-07-27T06:22:22.349Z,59.48
2018-07-27T06:24:53.040Z,59.42
2018-07-27T06:27:21.859Z,59.00
2018-07-27T06:29:51.323Z,58.27
2018-07-27T06:32:20.786Z,58.32
2018-07-27T06:34:51.525Z,58.72
2018-07-27T06:37:20.520Z,58.64
2018-07-27T06:39:48.961Z,58.51
2018-07-27T06:42:17.802Z,58.14
2018-07-27T06:44:46.769Z,58.36
2018-07-27T06:47:15.232Z,57.47
2018-07-27T06:49:43.872Z,58.06
2018-07-27T06:52:12.401Z,57.93
2018-07-27T06:54:41.116Z,57.74
2018-07-27T06:57:10.014Z,57.04
2018-07-27T06:59:39.033Z,57.12
2018-07-27T07:02:08.390Z,56.88
2018-07-27T07:04:36.932Z,57.34
2018-07-27T07:07:05.637Z,56.84
2018-07-27T07:09:34.102Z,56.41
2018-07-27T07:12:03.376Z,56.65
2018-07-27T07:14:32.003Z,55.79
2018-07-27T07:17:00.423Z,55.29
2018-07-27T07:19:29.294Z,55.38
2018-07-27T07:21:57.888Z,54.89
2018-07-27T07:24:26.542Z,54.10
2018-07-27T07:26:55.205Z,53.68
2018-07-27T07:29:23.933Z,53.53
2018-07-27T07:31:52.395Z,53.94
2018-07-27T07:34:20.853Z,53.15
2018-07-27T07:36:49.667Z,52.36
2018-07-27T07:39:18.808Z,50.13
2018-07-27T07:41:47.477Z,49.26
2018-07-27T07:44:17.612Z,46.62
2018-07-27T07:46:46.533Z,45.64
2018-07-27T07:49:15.094Z,44.06
2018-07-27T07:51:43.573Z,43.48
2018-07-27T07:54:12.007Z,42.25
2018-07-27T07:56:40.921Z,41.75
2018-07-27T07:59:09.393Z,41.11
2018-07-27T08:01:37.876Z,40.72
2018-07-27T08:04:06.897Z,39.95
2018-07-27T08:06:35.443Z,40.32
2018-07-27T08:09:05.122Z,39.82
2018-07-27T08:11:33.639Z,39.12
2018-07-27T08:14:02.246Z,38.89
2018-07-27T08:16:30.969Z,38.71
2018-07-27T08:18:59.689Z,38.02
2018-07-27T08:21:28.788Z,38.00
2018-07-27T08:23:57.662Z,37.91
2018-07-27T08:26:45.314Z,37.04
2018-07-27T08:29:15.242Z,37.13
2018-07-27T08:31:44.937Z,36.63
2018-07-27T08:34:14.720Z,35.79
2018-07-27T08:36:43.248Z,35.40
2018-07-27T08:39:13.649Z,35.17
2018-07-27T08:41:42.819Z,35.25
2018-07-27T08:44:12.659Z,34.56
2018-07-27T08:46:41.681Z,34.53
2018-07-27T08:49:10.985Z,34.28
2018-07-27T08:51:39.708Z,34.19
2018-07-27T08:54:08.554Z,33.50
2018-07-27T08:56:37.492Z,33.05
2018-07-27T08:59:06.497Z,32.54
2018-07-27T09:01:35.030Z,32.49
2018-07-27T09:04:03.590Z,32.52
2018-07-27T09:06:32.108Z,32.55
2018-07-27T09:09:00.708Z,32.74
2018-07-27T09:11:29.817Z,32.20
2018-07-27T09:13:58.486Z,31.56
2018-07-27T09:16:26.955Z,31.64
2018-07-27T09:18:55.707Z,31.21
2018-07-27T09:21:24.234Z,31.48
2018-07-27T09:23:52.720Z,31.20
2018-07-27T09:26:21.853Z,31.01
2018-07-27T09:28:50.353Z,31.07
2018-07-27T09:31:18.885Z,30.43
2018-07-27T09:33:48.025Z,30.71
2018-07-27T09:36:16.625Z,30.52
2018-07-27T09:38:45.341Z,30.76
2018-07-27T09:41:13.969Z,30.33
2018-07-27T09:43:42.685Z,30.16
2018-07-27T09:46:11.177Z,30.18
2018-07-27T09:48:39.937Z,30.07
2018-07-27T09:51:08.569Z,29.15
2018-07-27T09:53:37.077Z,28.55
2018-07-27T09:56:05.765Z,28.52
2018-07-27T09:58:34.213Z,28.29
2018-07-27T10:01:07.894Z,28.45
2018-07-27T10:03:36.369Z,27.60
2018-07-27T10:06:04.866Z,27.32
2018-07-27T10:08:33.897Z,25.83
2018-07-27T10:11:02.646Z,25.14
2018-07-27T10:13:31.108Z,24.61
2018-07-27T10:16:00.263Z,24.38
2018-07-27T10:18:28.712Z,24.03
2018-07-27T10:20:57.758Z,23.99
2018-07-27T10:23:27.001Z,23.88
2018-07-27T10:25:55.425Z,23.78
2018-07-27T10:28:23.946Z,22.75
2018-07-27T10:30:53.056Z,23.09
2018-07-27T10:33:21.641Z,23.03
2018-07-27T10:35:50.549Z,23.07
2018-07-27T10:38:19.956Z,22.50
2018-07-27T10:40:48.529Z,22.64
2018-07-27T10:43:16.985Z,22.99
2018-07-27T10:45:46.047Z,22.15
2018-07-27T10:48:14.624Z,22.27
2018-07-27T10:50:43.218Z,22.08
2018-07-27T10:53:12.407Z,22.40
2018-07-27T10:55:41.349Z,21.99
2018-07-27T10:58:09.926Z,22.25
2018-07-27T11:00:38.602Z,22.52
2018-07-27T11:03:07.111Z,22.65
2018-07-27T11:05:35.828Z,23.04
2018-07-27T11:08:04.585Z,22.75
2018-07-27T11:10:33.045Z,22.61
2018-07-27T11:13:01.490Z,22.65
2018-07-27T11:15:30.622Z,22.77
2018-07-27T11:17:59.074Z,23.02
2018-07-27T11:20:28.269Z,23.11
2018-07-27T11:22:57.069Z,23.13
2018-07-27T11:25:25.585Z,22.99
2018-07-27T11:27:54.046Z,23.44
2018-07-27T11:30:23.715Z,23.28
2018-07-27T11:32:52.195Z,23.47
2018-07-27T11:35:20.661Z,23.61
2018-07-27T11:37:49.390Z,23.38
2018-07-27T11:40:18.149Z,23.14
2018-07-27T11:42:46.610Z,23.57
2018-07-27T11:45:15.310Z,23.66
2018-07-27T11:47:43.785Z,24.02
2018-07-27T11:50:12.417Z,23.93
2018-07-27T11:52:41.829Z,23.97
2018-07-27T11:55:10.338Z,23.63
2018-07-27T11:57:38.868Z,24.00
2018-07-27T12:00:08.285Z,24.24
2018-07-27T12:02:36.748Z,24.43
2018-07-27T12:05:05.280Z,24.07
2018-07-27T12:07:34.233Z,24.08
2018-07-27T12:10:03.729Z,24.46
2018-07-27T12:12:32.193Z,24.31
2018-07-27T12:15:01.410Z,24.08
2018-07-27T12:17:29.684Z,23.99
2018-07-27T12:19:58.792Z,23.54
2018-07-27T12:22:28.261Z,23.62
2018-07-27T12:24:56.761Z,23.24
2018-07-27T12:27:25.212Z,23.09
2018-07-27T12:29:54.622Z,22.89
2018-07-27T12:32:23.558Z,22.49
2018-07-27T12:34:52.258Z,22.26
2018-07-27T12:37:21.533Z,22.44
2018-07-27T12:39:50.245Z,22.42
2018-07-27T12:42:19.071Z,22.89
2018-07-27T12:44:48.145Z,22.39
2018-07-27T12:47:16.585Z,22.30
2018-07-27T12:49:45.086Z,22.51
2018-07-27T12:52:13.793Z,22.54
2018-07-27T12:54:42.245Z,22.16
2018-07-27T12:57:10.677Z,22.31
2018-07-27T12:59:39.937Z,22.33
2018-07-27T13:02:08.413Z,22.73
2018-07-27T13:04:37.241Z,22.58
2018-07-27T13:07:05.909Z,22.48
2018-07-27T13:09:34.349Z,22.93
2018-07-27T13:12:02.803Z,22.85
2018-07-27T13:14:31.674Z,22.60
2018-07-27T13:17:00.142Z,22.37
2018-07-27T13:19:28.585Z,22.27
2018-07-27T13:21:57.361Z,22.29
2018-07-27T13:26:54.319Z,22.64
2018-07-27T13:29:23.382Z,22.30
2018-07-27T13:31:53.129Z,22.56
2018-07-27T13:34:40.657Z,22.23
2018-07-27T13:37:09.245Z,22.29
2018-07-27T13:39:38.297Z,22.60
2018-07-27T13:42:07.961Z,22.47
2018-07-27T13:44:37.671Z,22.39
2018-07-27T13:47:06.681Z,22.46
2018-07-27T13:49:35.902Z,22.54
2018-07-27T13:52:04.468Z,22.55
2018-07-27T13:54:34.013Z,22.45
2018-07-27T13:57:03.041Z,22.15
2018-07-27T13:59:31.533Z,22.05
2018-07-27T14:01:59.973Z,21.62
2018-07-27T14:04:29.184Z,21.44
2018-07-27T14:06:58.926Z,21.59
2018-07-27T14:09:27.367Z,21.39
2018-07-27T14:11:56.151Z,21.40
2018-07-27T14:14:24.771Z,21.17
2018-07-27T14:16:53.318Z,20.89
2018-07-27T14:19:22.530Z,21.08
2018-07-27T14:21:51.042Z,20.94
2018-07-27T14:24:19.805Z,20.96
2018-07-27T14:26:48.640Z,21.29
2018-07-27T14:29:17.201Z,21.04
2018-07-27T14:31:45.690Z,21.24
2018-07-27T14:34:14.591Z,21.21
2018-07-27T14:36:43.041Z,21.36
2018-07-27T14:39:14.430Z,21.14
2018-07-27T14:41:43.379Z,21.17
2018-07-27T14:44:11.912Z,21.41
2018-07-27T14:46:40.990Z,21.38
2018-07-27T14:49:16.882Z,21.07
2018-07-27T14:51:45.488Z,20.78
2018-07-27T14:54:14.988Z,20.81
2018-07-27T14:56:43.957Z,20.44
2018-07-27T14:59:12.828Z,20.27
2018-07-27T15:01:41.746Z,20.61
2018-07-27T15:04:11.450Z,20.18
2018-07-27T15:06:40.270Z,20.65
2018-07-27T15:09:13.642Z,20.35
2018-07-27T15:11:42.590Z,20.51
2018-07-27T15:14:11.105Z,20.64
2018-07-27T15:16:40.102Z,20.26
2018-07-27T15:19:08.997Z,20.26
2018-07-27T15:21:37.460Z,20.22
2018-07-27T15:24:09.229Z,20.09
2018-07-27T15:26:37.793Z,20.02
2018-07-27T15:29:06.373Z,20.26
2018-07-27T15:31:35.182Z,20.68
2018-07-27T15:34:03.699Z,20.91
2018-07-27T15:36:32.527Z,21.05
2018-07-27T15:39:01.178Z,20.66
2018-07-27T15:41:29.662Z,20.69
2018-07-27T15:43:58.189Z,20.79
2018-07-27T15:46:27.390Z,21.24
2018-07-27T15:48:56.573Z,21.26
2018-07-27T15:51:25.065Z,21.85
2018-07-27T15:53:54.673Z,22.14
2018-07-27T15:56:23.168Z,21.96
2018-07-27T15:58:51.629Z,22.33
2018-07-27T16:01:20.496Z,22.21
2018-07-27T16:03:49.752Z,22.25
2018-07-27T16:06:18.202Z,22.15
2018-07-27T16:08:47.105Z,22.07
2018-07-27T16:11:16.172Z,21.81
2018-07-27T16:13:44.638Z,22.04
2018-07-27T16:16:13.625Z,22.65
2018-07-27T16:18:42.113Z,22.56
2018-07-27T16:21:10.557Z,22.80
2018-07-27T16:23:39.838Z,22.68
2018-07-27T16:26:08.321Z,22.70
2018-07-27T16:28:37.234Z,23.02
2018-07-27T16:31:05.929Z,23.19
2018-07-27T16:33:34.424Z,23.14
2018-07-27T16:36:02.877Z,23.12
2018-07-27T16:38:31.677Z,23.42
2018-07-27T16:41:00.325Z,23.36
2018-07-27T16:43:28.813Z,23.25
2018-07-27T16:45:58.915Z,23.58
2018-07-27T16:48:27.405Z,23.83
2018-07-27T16:50:56.492Z,24.06
2018-07-27T16:53:25.584Z,23.94
2018-07-27T16:55:54.580Z,24.07
2018-07-27T16:58:23.029Z,24.27
2018-07-27T17:00:51.657Z,24.14
2018-07-27T17:03:20.719Z,24.39
2018-07-27T17:05:49.212Z,24.17
2018-07-27T17:08:18.313Z,24.60
2018-07-27T17:10:47.501Z,24.93
2018-07-27T17:13:16.051Z,25.55
2018-07-27T17:15:44.978Z,25.72
2018-07-27T17:18:13.470Z,26.12
2018-07-27T17:20:42.210Z,27.88
2018-07-27T17:23:12.231Z,28.61
2018-07-27T17:25:40.918Z,29.22
2018-07-27T17:28:09.289Z,29.88
2018-07-27T17:30:38.009Z,30.91
2018-07-27T17:33:06.491Z,31.79
2018-07-27T17:35:34.931Z,32.03
2018-07-27T17:38:04.387Z,32.47
2018-07-27T17:40:32.941Z,32.97
2018-07-27T17:43:01.427Z,33.57
2018-07-27T17:45:30.316Z,34.07
2018-07-27T17:47:59.828Z,34.33
2018-07-27T17:50:29.037Z,34.93
2018-07-27T17:52:59.424Z,35.25
2018-07-27T17:55:28.308Z,36.23
2018-07-27T17:57:57.001Z,36.36
2018-07-27T18:00:26.295Z,36.98
2018-07-27T18:02:55.071Z,37.01
2018-07-27T18:05:24.165Z,38.15
2018-07-27T18:07:53.003Z,38.68
2018-07-27T18:10:22.110Z,38.61
2018-07-27T18:12:51.207Z,38.71
2018-07-27T18:15:20.217Z,38.90
2018-07-27T18:17:49.005Z,38.65
2018-07-27T18:20:17.489Z,39.61
2018-07-27T18:22:46.615Z,39.17
2018-07-27T18:25:16.656Z,39.74
2018-07-27T18:27:45.953Z,40.14
2018-07-27T18:30:15.068Z,40.82
2018-07-27T18:32:43.549Z,40.46
2018-07-27T18:35:11.989Z,40.82
2018-07-27T18:37:41.123Z,41.69
2018-07-27T18:40:10.145Z,41.71
2018-07-27T18:42:38.737Z,42.68
2018-07-27T18:45:08.198Z,43.21
2018-07-27T18:47:36.771Z,43.34
2018-07-27T18:50:06.328Z,43.38
2018-07-27T18:52:36.297Z,43.58
2018-07-27T18:55:05.620Z,43.78
2018-07-27T18:57:34.134Z,44.08
2018-07-27T19:00:03.694Z,44.31
2018-07-27T19:02:33.061Z,45.25
2018-07-27T19:05:01.516Z,44.82
2018-07-27T19:07:30.134Z,45.57
2018-07-27T19:09:58.624Z,45.62
2018-07-27T19:12:27.068Z,45.94
2018-07-27T19:14:56.070Z,46.59
2018-07-27T19:17:24.561Z,46.41
2018-07-27T19:19:52.977Z,47.09
2018-07-27T19:22:22.126Z,47.19
2018-07-27T19:24:50.974Z,47.29
2018-07-27T19:27:19.401Z,48.96
2018-07-27T19:29:47.997Z,49.13
2018-07-27T19:32:16.681Z,48.96
2018-07-27T19:34:45.349Z,49.75
2018-07-27T19:37:14.545Z,49.30
2018-07-27T19:39:43.069Z,49.47
2018-07-27T19:42:11.790Z,50.08
2018-07-27T19:44:40.584Z,50.63
2018-07-27T19:47:09.389Z,50.10
2018-07-27T19:49:38.089Z,51.04
2018-07-27T19:52:07.535Z,50.66
2018-07-27T19:54:36.018Z,50.90
2018-07-27T19:57:04.493Z,51.84
2018-07-27T19:59:33.586Z,51.69
2018-07-27T20:02:02.781Z,52.18
2018-07-27T20:04:31.222Z,51.85
2018-07-27T20:07:00.306Z,52.10
2018-07-27T20:09:28.788Z,52.90
2018-07-27T20:11:57.446Z,53.18
2018-07-27T20:14:26.091Z,53.11
2018-07-27T20:16:54.857Z,53.78
2018-07-27T20:19:23.310Z,53.77
2018-07-27T20:21:52.025Z,53.40
2018-07-27T20:24:20.561Z,53.72
2018-07-27T20:26:49.172Z,54.25
2018-07-27T20:29:18.151Z,53.99
2018-07-27T20:31:46.640Z,54.06
2018-07-27T20:34:15.067Z,54.81
2018-07-27T20:36:44.157Z,54.48
2018-07-27T20:39:14.241Z,55.47
2018-07-27T20:41:43.781Z,55.45
2018-07-27T20:44:12.573Z,55.63
2018-07-27T20:46:41.329Z,56.01
2018-07-27T20:49:10.180Z,56.17
2018-07-27T20:51:39.537Z,56.26
2018-07-27T20:54:08.601Z,56.46
2018-07-27T20:56:37.079Z,56.34
2018-07-27T20:59:06.354Z,56.49
2018-07-27T21:01:35.277Z,57.03
2018-07-27T21:04:03.948Z,57.16
2018-07-27T21:06:32.993Z,56.93
2018-07-27T21:09:01.485Z,57.51
2018-07-27T21:11:30.201Z,57.49
2018-07-27T21:14:00.288Z,57.16
2018-07-27T21:16:29.647Z,57.92
2018-07-27T21:18:58.437Z,57.78
2018-07-27T21:21:27.127Z,58.22
2018-07-27T21:23:55.654Z,58.58
2018-07-27T21:26:24.117Z,58.51
2018-07-27T21:28:53.043Z,58.90
2018-07-27T21:31:21.544Z,58.44
2018-07-27T21:33:49.978Z,58.92
2018-07-27T21:36:18.586Z,58.60
2018-07-27T21:38:47.096Z,59.32
2018-07-27T21:41:15.500Z,58.89
2018-07-27T21:43:44.570Z,59.15
2018-07-27T21:46:13.410Z,59.88
2018-07-27T21:48:41.881Z,59.98
2018-07-27T21:51:11.540Z,59.81
2018-07-27T21:53:40.028Z,59.86
2018-07-27T21:56:08.636Z,60.28
2018-07-27T21:58:37.843Z,60.88
2018-07-27T22:01:06.330Z,60.61
2018-07-27T22:03:34.954Z,61.53
2018-07-27T22:06:03.899Z,61.19
2018-07-27T22:08:32.411Z,61.78
2018-07-27T22:11:00.898Z,62.15
2018-07-27T22:13:30.618Z,62.04
2018-07-27T22:15:59.417Z,61.90
2018-07-27T22:18:28.053Z,62.04
2018-07-27T22:20:57.300Z,62.63
2018-07-27T22:23:26.173Z,62.64
2018-07-27T22:25:54.632Z,62.41
2018-07-27T22:28:23.601Z,62.91
2018-07-27T22:30:52.115Z,62.46
2018-07-27T22:33:20.801Z,63.11
2018-07-27T22:35:50.334Z,63.16
2018-07-27T22:38:18.859Z,63.24
2018-07-27T22:40:47.354Z,62.91
2018-07-27T22:43:16.565Z,63.47
2018-07-27T22:45:45.076Z,63.08
2018-07-27T22:48:13.525Z,63.28
2018-07-27T22:50:42.691Z,63.39
2018-07-27T22:53:11.185Z,63.39
2018-07-27T22:55:39.984Z,63.72
2018-07-27T22:58:09.049Z,64.28
2018-07-27T23:00:37.545Z,64.34
2018-07-27T23:03:06.337Z,63.99
2018-07-27T23:05:35.122Z,64.59
2018-07-27T23:08:03.672Z,64.83
2018-07-27T23:10:32.092Z,64.96
2018-07-27T23:13:01.777Z,65.03
2018-07-27T23:15:30.377Z,64.54
2018-07-27T23:17:58.833Z,65.38
2018-07-27T23:20:27.662Z,65.25
2018-07-27T23:22:56.426Z,65.90
2018-07-27T23:25:24.859Z,66.14
2018-07-27T23:27:53.842Z,66.33
2018-07-27T23:30:22.313Z,66.05
2018-07-27T23:32:50.784Z,66.56
2018-07-27T23:35:20.869Z,66.75
2018-07-27T23:37:49.494Z,67.04
2018-07-27T23:40:18.149Z,66.99
2018-07-27T23:42:47.541Z,67.00
2018-07-27T23:45:22.605Z,66.94
2018-07-27T23:47:51.734Z,67.04
2018-07-27T23:50:20.211Z,67.59
2018-07-27T23:52:48.718Z,67.48
2018-07-27T23:55:17.721Z,67.47
2018-07-27T23:57:46.614Z,68.16
